createdAt,value
2019-02-21T00:00:07.256Z,8.15
2019-02-21T00:01:07.272Z,8.09
2019-02-21T00:02:07.292Z,8.12
2019-02-21T00:03:07.310Z,8.09
2019-02-21T00:04:07.318Z,8.09
2019-02-21T00:05:07.341Z,8.06
2019-02-21T00:06:07.351Z,8.05
2019-02-21T00:07:07.373Z,8.03
2019-02-21T00:08:07.382Z,7.98
2019-02-21T00:09:07.408Z,8.03
2019-02-21T00:10:07.427Z,8.00
2019-02-21T00:11:07.458Z,8.03
2019-02-21T00:12:07.455Z,8.05
2019-02-21T00:13:07.465Z,8.00
2019-02-21T00:14:07.487Z,7.93
2019-02-21T00:15:07.498Z,7.95
2019-02-21T00:16:07.518Z,7.97
2019-02-21T00:17:07.531Z,7.94
2019-02-21T00:18:07.553Z,7.95
2019-02-21T00:19:07.561Z,7.94
2019-02-21T00:20:07.577Z,7.95
2019-02-21T00:21:07.597Z,7.95
2019-02-21T00:22:07.613Z,7.98
2019-02-21T00:23:07.641Z,7.93
2019-02-21T00:24:07.645Z,8.00
2019-02-21T00:25:07.665Z,7.90
2019-02-21T00:26:07.684Z,7.97
2019-02-21T00:27:07.691Z,7.93
2019-02-21T00:28:07.707Z,7.90
2019-02-21T00:29:07.727Z,7.95
2019-02-21T00:30:07.744Z,7.97
2019-02-21T00:31:07.757Z,7.95
2019-02-21T00:32:07.774Z,7.93
2019-02-21T00:33:07.788Z,7.93
2019-02-21T00:34:07.813Z,7.98
2019-02-21T00:35:07.829Z,7.94
2019-02-21T00:36:07.836Z,7.90
2019-02-21T00:37:07.859Z,7.95
2019-02-21T00:38:07.877Z,7.91
2019-02-21T00:39:07.887Z,7.93
2019-02-21T00:40:07.904Z,7.88
2019-02-21T00:41:07.925Z,7.88
2019-02-21T00:42:07.952Z,7.87
2019-02-21T00:43:07.948Z,7.85
2019-02-21T00:44:07.964Z,7.85
2019-02-21T00:45:07.987Z,7.88
2019-02-21T00:46:08.006Z,7.87
2019-02-21T00:47:08.012Z,7.94
2019-02-21T00:48:08.028Z,7.97
2019-02-21T00:49:08.044Z,7.91
2019-02-21T00:50:08.064Z,7.85
2019-02-21T00:51:08.096Z,7.79
2019-02-21T00:52:08.093Z,7.85
2019-02-21T00:53:08.115Z,7.82
2019-02-21T00:54:08.128Z,7.79
2019-02-21T00:55:08.145Z,7.85
2019-02-21T00:56:08.160Z,7.80
2019-02-21T00:57:08.176Z,7.82
2019-02-21T00:58:08.207Z,7.82
2019-02-21T00:59:08.206Z,7.73
2019-02-21T01:00:08.223Z,7.82
2019-02-21T01:01:08.240Z,7.77
2019-02-21T01:02:08.261Z,7.60
2019-02-21T01:03:08.269Z,7.57
2019-02-21T01:04:08.293Z,7.69
2019-02-21T01:05:08.308Z,7.63
2019-02-21T01:06:08.317Z,7.60
2019-02-21T01:07:08.332Z,7.66
2019-02-21T01:08:08.353Z,7.67
2019-02-21T01:09:08.373Z,7.61
2019-02-21T01:10:08.380Z,7.60
2019-02-21T01:11:08.400Z,7.58
2019-02-21T01:12:08.419Z,7.53
2019-02-21T01:13:08.430Z,7.56
2019-02-21T01:14:08.452Z,7.53
2019-02-21T01:15:08.469Z,7.50
2019-02-21T01:16:08.477Z,7.51
2019-02-21T01:17:08.493Z,7.54
2019-02-21T01:18:08.509Z,7.57
2019-02-21T01:19:08.526Z,7.54
2019-02-21T01:20:08.545Z,7.56
2019-02-21T01:21:08.555Z,7.58
2019-02-21T01:22:08.571Z,7.56
2019-02-21T01:23:08.590Z,7.53
2019-02-21T01:24:08.602Z,7.53
2019-02-21T01:25:08.621Z,7.45
2019-02-21T01:26:08.634Z,7.47
2019-02-21T01:27:08.652Z,7.51
2019-02-21T01:28:08.672Z,7.53
2019-02-21T01:29:08.683Z,7.48
2019-02-21T01:30:08.700Z,7.40
2019-02-21T01:31:08.717Z,7.47
2019-02-21T01:32:08.736Z,7.42
2019-02-21T01:33:08.769Z,7.47
2019-02-21T01:34:08.764Z,7.48
2019-02-21T01:35:08.776Z,7.42
2019-02-21T01:36:08.795Z,7.43
2019-02-21T01:37:08.808Z,7.40
2019-02-21T01:38:08.823Z,7.43
2019-02-21T01:39:08.847Z,7.56
2019-02-21T01:40:08.857Z,7.42
2019-02-21T01:41:08.873Z,7.42
2019-02-21T01:42:08.893Z,7.47
2019-02-21T01:43:08.902Z,7.40
2019-02-21T01:44:08.920Z,7.50
2019-02-21T01:45:08.940Z,7.43
2019-02-21T01:46:08.953Z,7.39
2019-02-21T01:47:08.973Z,7.51
2019-02-21T01:48:08.984Z,7.51
2019-02-21T01:49:09.004Z,7.40
2019-02-21T01:50:09.015Z,7.43
2019-02-21T01:51:09.037Z,7.33
2019-02-21T01:52:09.046Z,7.42
2019-02-21T01:53:09.063Z,7.39
2019-02-21T01:54:09.079Z,7.35
2019-02-21T01:55:09.094Z,7.45
2019-02-21T01:56:09.116Z,7.42
2019-02-21T01:57:09.126Z,7.35
2019-02-21T01:58:09.139Z,7.35
2019-02-21T01:59:09.154Z,7.40
2019-02-21T02:00:09.174Z,7.43
2019-02-21T02:01:09.253Z,7.45
2019-02-21T02:02:09.203Z,7.39
2019-02-21T02:03:09.220Z,7.43
2019-02-21T02:04:09.236Z,7.40
2019-02-21T02:05:09.252Z,7.32
2019-02-21T02:06:09.275Z,7.33
2019-02-21T02:07:09.287Z,7.45
2019-02-21T02:08:09.297Z,7.32
2019-02-21T02:09:09.314Z,7.42
2019-02-21T02:10:09.337Z,7.38
2019-02-21T02:11:09.358Z,7.42
2019-02-21T02:12:09.362Z,7.54
2019-02-21T02:13:21.526Z,7.47
2019-02-21T02:14:09.392Z,7.50
2019-02-21T02:15:09.413Z,7.48
2019-02-21T02:16:09.423Z,7.50
2019-02-21T02:17:09.444Z,7.47
2019-02-21T02:18:09.457Z,7.50
2019-02-21T02:19:09.475Z,7.50
2019-02-21T02:20:09.495Z,7.51
2019-02-21T02:21:09.502Z,7.50
2019-02-21T02:22:09.521Z,7.50
2019-02-21T02:23:09.536Z,7.47
2019-02-21T02:24:09.552Z,7.48
2019-02-21T02:25:09.566Z,7.50
2019-02-21T02:26:09.611Z,7.50
2019-02-21T02:27:09.598Z,7.47
2019-02-21T02:28:09.618Z,7.45
2019-02-21T02:29:09.639Z,7.48
2019-02-21T02:30:09.647Z,7.50
2019-02-21T02:31:22.008Z,7.47
2019-02-21T02:32:09.959Z,7.51
2019-02-21T02:33:09.696Z,7.48
2019-02-21T02:34:09.712Z,7.48
2019-02-21T02:35:09.726Z,7.54
2019-02-21T02:36:09.743Z,7.47
2019-02-21T02:37:09.795Z,7.39
2019-02-21T02:38:09.780Z,7.50
2019-02-21T02:39:09.793Z,7.40
2019-02-21T02:40:09.821Z,7.47
2019-02-21T02:41:09.820Z,7.40
2019-02-21T02:42:09.836Z,7.38
2019-02-21T02:43:09.857Z,7.45
2019-02-21T02:44:09.875Z,7.48
2019-02-21T02:45:09.884Z,7.48
2019-02-21T02:46:09.914Z,7.47
2019-02-21T02:47:09.917Z,7.43
2019-02-21T02:48:10.054Z,7.43
2019-02-21T02:49:09.951Z,7.35
2019-02-21T02:50:09.966Z,7.43
2019-02-21T02:51:09.980Z,7.39
2019-02-21T02:52:09.997Z,7.45
2019-02-21T02:53:10.012Z,7.51
2019-02-21T02:54:10.028Z,7.42
2019-02-21T02:55:10.046Z,7.40
2019-02-21T02:56:10.061Z,7.39
2019-02-21T02:57:10.080Z,7.29
2019-02-21T02:58:10.092Z,7.38
2019-02-21T02:59:10.107Z,7.31
2019-02-21T03:00:10.122Z,7.25
2019-02-21T03:01:10.140Z,7.20
2019-02-21T03:02:10.154Z,7.28
2019-02-21T03:03:10.176Z,7.31
2019-02-21T03:04:10.185Z,7.21
2019-02-21T03:05:10.201Z,7.31
2019-02-21T03:06:10.218Z,7.32
2019-02-21T03:07:10.240Z,7.32
2019-02-21T03:08:10.278Z,7.20
2019-02-21T03:09:10.265Z,7.23
2019-02-21T03:10:10.280Z,7.18
2019-02-21T03:11:10.304Z,7.17
2019-02-21T03:12:10.313Z,7.20
2019-02-21T03:13:10.338Z,7.21
2019-02-21T03:14:10.347Z,7.20
2019-02-21T03:15:10.359Z,7.05
2019-02-21T03:16:10.378Z,7.18
2019-02-21T03:17:10.392Z,7.21
2019-02-21T03:18:10.406Z,7.21
2019-02-21T03:19:10.423Z,7.20
2019-02-21T03:20:10.534Z,7.11
2019-02-21T03:21:10.458Z,7.10
2019-02-21T03:22:10.473Z,7.10
2019-02-21T03:23:10.486Z,7.14
2019-02-21T03:24:10.499Z,7.10
2019-02-21T03:25:10.516Z,7.11
2019-02-21T03:26:10.548Z,7.00
2019-02-21T03:27:10.553Z,6.96
2019-02-21T03:28:10.562Z,7.02
2019-02-21T03:29:10.578Z,7.02
2019-02-21T03:30:12.452Z,6.96
2019-02-21T03:31:10.613Z,6.95
2019-02-21T03:32:10.636Z,6.93
2019-02-21T03:33:10.644Z,6.97
2019-02-21T03:34:10.661Z,7.00
2019-02-21T03:35:10.791Z,6.93
2019-02-21T03:36:10.699Z,6.96
2019-02-21T03:37:10.710Z,6.95
2019-02-21T03:38:10.729Z,6.93
2019-02-21T03:39:10.744Z,6.87
2019-02-21T03:40:10.806Z,6.87
2019-02-21T03:41:10.770Z,6.95
2019-02-21T03:42:10.782Z,6.93
2019-02-21T03:43:10.799Z,6.81
2019-02-21T03:44:10.822Z,6.82
2019-02-21T03:45:10.835Z,6.84
2019-02-21T03:46:10.854Z,6.82
2019-02-21T03:47:10.861Z,6.79
2019-02-21T03:48:10.878Z,6.75
2019-02-21T03:49:10.891Z,6.78
2019-02-21T03:50:10.908Z,6.77
2019-02-21T03:51:10.923Z,6.74
2019-02-21T03:52:10.939Z,6.77
2019-02-21T03:53:10.956Z,6.74
2019-02-21T03:54:10.968Z,6.72
2019-02-21T03:55:10.994Z,6.72
2019-02-21T03:56:11.004Z,6.66
2019-02-21T03:57:11.023Z,6.62
2019-02-21T03:58:11.030Z,6.66
2019-02-21T03:59:11.048Z,6.72
2019-02-21T04:00:11.068Z,6.67
2019-02-21T04:01:11.079Z,6.78
2019-02-21T04:02:11.102Z,6.77
2019-02-21T04:03:11.107Z,6.79
2019-02-21T04:04:11.121Z,6.74
2019-02-21T04:05:11.144Z,6.70
2019-02-21T04:06:11.156Z,6.74
2019-02-21T04:07:11.171Z,6.69
2019-02-21T04:08:11.187Z,6.72
2019-02-21T04:09:11.205Z,6.72
2019-02-21T04:10:11.223Z,6.75
2019-02-21T04:11:11.231Z,6.77
2019-02-21T04:12:11.259Z,6.77
2019-02-21T04:13:11.262Z,6.70
2019-02-21T04:14:11.278Z,6.56
2019-02-21T04:15:11.294Z,6.62
2019-02-21T04:16:11.307Z,6.60
2019-02-21T04:17:11.329Z,6.62
2019-02-21T04:18:11.339Z,6.57
2019-02-21T04:19:11.356Z,6.60
2019-02-21T04:20:11.371Z,6.56
2019-02-21T04:21:11.397Z,6.57
2019-02-21T04:22:11.403Z,6.52
2019-02-21T04:23:11.417Z,6.51
2019-02-21T04:24:11.436Z,6.54
2019-02-21T04:25:11.447Z,6.52
2019-02-21T04:26:11.465Z,6.49
2019-02-21T04:27:11.478Z,6.54
2019-02-21T04:28:11.495Z,6.54
2019-02-21T04:29:11.527Z,6.56
2019-02-21T04:30:11.527Z,6.54
2019-02-21T04:31:11.539Z,6.56
2019-02-21T04:32:16.947Z,6.52
2019-02-21T04:33:11.570Z,6.62
2019-02-21T04:34:11.589Z,6.54
2019-02-21T04:35:11.606Z,6.59
2019-02-21T04:36:11.623Z,6.59
2019-02-21T04:37:11.637Z,6.56
2019-02-21T04:38:11.649Z,6.64
2019-02-21T04:39:11.665Z,6.60
2019-02-21T04:40:11.678Z,6.59
2019-02-21T04:41:11.700Z,6.59
2019-02-21T04:42:11.711Z,6.62
2019-02-21T04:43:11.731Z,6.56
2019-02-21T04:44:11.741Z,6.51
2019-02-21T04:45:11.758Z,6.41
2019-02-21T04:46:11.774Z,6.49
2019-02-21T04:47:11.787Z,6.42
2019-02-21T04:48:11.803Z,6.46
2019-02-21T04:49:11.819Z,6.41
2019-02-21T04:50:11.831Z,6.45
2019-02-21T04:51:11.846Z,6.45
2019-02-21T04:52:11.865Z,6.48
2019-02-21T04:53:11.879Z,6.46
2019-02-21T04:54:11.905Z,6.44
2019-02-21T04:55:11.907Z,6.46
2019-02-21T04:56:11.923Z,6.49
2019-02-21T04:57:11.944Z,6.48
2019-02-21T04:58:11.953Z,6.45
2019-02-21T04:59:11.992Z,6.46
2019-02-21T05:00:11.986Z,6.46
2019-02-21T05:01:11.999Z,6.51
2019-02-21T05:02:12.016Z,6.44
2019-02-21T05:03:12.030Z,6.49
2019-02-21T05:04:12.054Z,6.51
2019-02-21T05:05:12.061Z,6.44
2019-02-21T05:06:12.081Z,6.44
2019-02-21T05:07:12.093Z,6.44
2019-02-21T05:08:12.113Z,6.46
2019-02-21T05:09:12.137Z,6.38
2019-02-21T05:10:12.144Z,6.33
2019-02-21T05:11:12.158Z,6.42
2019-02-21T05:12:12.170Z,6.31
2019-02-21T05:13:12.186Z,6.42
2019-02-21T05:14:12.199Z,6.42
2019-02-21T05:15:14.036Z,6.35
2019-02-21T05:16:12.338Z,6.31
2019-02-21T05:17:12.247Z,6.30
2019-02-21T05:18:12.274Z,6.33
2019-02-21T05:19:12.281Z,6.38
2019-02-21T05:20:12.293Z,6.30
2019-02-21T05:21:12.309Z,6.35
2019-02-21T05:22:12.330Z,6.28
2019-02-21T05:23:12.335Z,6.28
2019-02-21T05:24:12.353Z,6.33
2019-02-21T05:25:12.370Z,6.33
2019-02-21T05:26:12.382Z,6.31
2019-02-21T05:27:12.401Z,6.35
2019-02-21T05:28:12.412Z,6.28
2019-02-21T05:29:12.428Z,6.28
2019-02-21T05:30:12.443Z,6.20
2019-02-21T05:31:12.460Z,6.19
2019-02-21T05:32:12.481Z,6.22
2019-02-21T05:33:12.488Z,6.30
2019-02-21T05:34:12.505Z,6.19
2019-02-21T05:35:12.521Z,6.26
2019-02-21T05:36:12.536Z,6.27
2019-02-21T05:37:12.550Z,6.30
2019-02-21T05:38:12.572Z,6.22
2019-02-21T05:39:12.584Z,6.17
2019-02-21T05:40:12.599Z,6.20
2019-02-21T05:41:12.734Z,6.20
2019-02-21T05:42:12.626Z,6.31
2019-02-21T05:43:12.641Z,6.27
2019-02-21T05:44:12.659Z,6.26
2019-02-21T05:45:12.674Z,6.24
2019-02-21T05:46:12.695Z,6.19
2019-02-21T05:47:12.704Z,6.30
2019-02-21T05:48:12.717Z,6.22
2019-02-21T05:49:12.740Z,6.24
2019-02-21T05:50:12.749Z,6.24
2019-02-21T05:51:12.762Z,6.20
2019-02-21T05:52:12.796Z,6.27
2019-02-21T05:53:12.801Z,6.28
2019-02-21T05:54:12.967Z,6.24
2019-02-21T05:55:12.828Z,6.17
2019-02-21T05:56:12.839Z,6.22
2019-02-21T05:57:12.862Z,6.28
2019-02-21T05:58:12.983Z,6.22
2019-02-21T05:59:12.885Z,6.24
2019-02-21T06:00:12.969Z,6.19
2019-02-21T06:01:12.918Z,6.27
2019-02-21T06:02:12.946Z,6.22
2019-02-21T06:03:12.947Z,6.20
2019-02-21T06:04:12.962Z,6.26
2019-02-21T06:05:12.975Z,6.24
2019-02-21T06:06:13.021Z,6.26
2019-02-21T06:07:13.009Z,6.22
2019-02-21T06:08:13.023Z,6.20
2019-02-21T06:09:13.044Z,6.33
2019-02-21T06:10:13.053Z,6.27
2019-02-21T06:11:13.068Z,6.19
2019-02-21T06:12:13.083Z,6.26
2019-02-21T06:13:13.108Z,6.27
2019-02-21T06:14:13.121Z,6.26
2019-02-21T06:15:13.127Z,6.26
2019-02-21T06:16:13.145Z,6.20
2019-02-21T06:17:13.161Z,6.20
2019-02-21T06:18:13.173Z,6.22
2019-02-21T06:19:13.190Z,6.26
2019-02-21T06:20:13.206Z,6.20
2019-02-21T06:21:13.219Z,6.22
2019-02-21T06:22:13.243Z,6.22
2019-02-21T06:23:13.254Z,6.27
2019-02-21T06:24:13.266Z,6.27
2019-02-21T06:25:13.281Z,6.27
2019-02-21T06:26:13.309Z,6.19
2019-02-21T06:27:13.312Z,6.27
2019-02-21T06:28:13.327Z,6.30
2019-02-21T06:29:13.343Z,6.19
2019-02-21T06:30:13.357Z,6.19
2019-02-21T06:31:13.373Z,6.27
2019-02-21T06:32:14.542Z,6.26
2019-02-21T06:33:13.404Z,6.27
2019-02-21T06:34:13.417Z,6.28
2019-02-21T06:35:13.438Z,6.28
2019-02-21T06:36:13.450Z,6.30
2019-02-21T06:37:13.464Z,6.27
2019-02-21T06:38:13.478Z,6.17
2019-02-21T06:39:13.497Z,6.28
2019-02-21T06:40:13.508Z,6.26
2019-02-21T06:41:13.524Z,6.17
2019-02-21T06:42:13.556Z,6.30
2019-02-21T06:43:13.555Z,6.28
2019-02-21T06:44:13.575Z,6.24
2019-02-21T06:45:13.586Z,6.28
2019-02-21T06:46:13.956Z,6.31
2019-02-21T06:47:13.619Z,6.30
2019-02-21T06:48:13.631Z,6.31
2019-02-21T06:49:13.646Z,6.35
2019-02-21T06:50:14.495Z,6.28
2019-02-21T06:51:13.678Z,6.30
2019-02-21T06:52:15.577Z,6.30
2019-02-21T06:53:13.709Z,6.33
2019-02-21T06:54:13.722Z,6.39
2019-02-21T06:55:13.743Z,6.35
2019-02-21T06:56:13.754Z,6.39
2019-02-21T06:57:13.777Z,6.39
2019-02-21T06:58:13.785Z,6.31
2019-02-21T06:59:13.803Z,6.39
2019-02-21T07:00:13.820Z,6.33
2019-02-21T07:01:13.831Z,6.38
2019-02-21T07:02:13.853Z,6.39
2019-02-21T07:03:16.072Z,6.44
2019-02-21T07:04:13.877Z,6.46
2019-02-21T07:05:13.890Z,6.49
2019-02-21T07:06:13.912Z,6.42
2019-02-21T07:07:13.927Z,6.46
2019-02-21T07:08:13.940Z,6.45
2019-02-21T07:09:13.952Z,6.54
2019-02-21T07:10:13.971Z,6.56
2019-02-21T07:11:13.991Z,6.59
2019-02-21T07:12:13.997Z,6.54
2019-02-21T07:13:25.699Z,6.62
2019-02-21T07:14:14.038Z,6.56
2019-02-21T07:15:15.126Z,6.62
2019-02-21T07:16:14.063Z,6.54
2019-02-21T07:17:14.074Z,6.48
2019-02-21T07:18:14.118Z,6.57
2019-02-21T07:19:14.107Z,6.59
2019-02-21T07:20:14.119Z,6.59
2019-02-21T07:21:14.147Z,6.57
2019-02-21T07:22:17.875Z,6.67
2019-02-21T07:23:14.171Z,6.64
2019-02-21T07:24:14.193Z,6.72
2019-02-21T07:25:14.198Z,6.66
2019-02-21T07:26:14.214Z,6.78
2019-02-21T07:27:14.229Z,6.89
2019-02-21T07:28:15.937Z,6.99
2019-02-21T07:29:14.260Z,6.96
2019-02-21T07:30:20.177Z,6.97
2019-02-21T07:31:14.290Z,7.10
2019-02-21T07:32:14.306Z,7.14
2019-02-21T07:33:14.322Z,7.15
2019-02-21T07:34:14.338Z,7.11
2019-02-21T07:35:14.353Z,7.11
2019-02-21T07:36:14.451Z,7.15
2019-02-21T07:37:18.486Z,7.20
2019-02-21T07:38:17.018Z,7.29
2019-02-21T07:39:19.810Z,7.21
2019-02-21T07:40:20.120Z,7.21
2019-02-21T07:41:14.565Z,7.29
2019-02-21T07:42:14.462Z,7.33
2019-02-21T07:43:14.476Z,7.47
2019-02-21T07:44:14.495Z,7.43
2019-02-21T07:45:14.672Z,7.38
2019-02-21T07:46:14.523Z,7.47
2019-02-21T07:47:14.539Z,7.42
2019-02-21T07:48:14.562Z,7.31
2019-02-21T07:49:14.572Z,7.50
2019-02-21T07:50:14.594Z,7.47
2019-02-21T07:51:14.603Z,7.53
2019-02-21T07:52:14.617Z,7.51
2019-02-21T07:53:14.635Z,7.54
2019-02-21T07:54:14.653Z,7.60
2019-02-21T07:55:14.664Z,7.61
2019-02-21T07:56:14.688Z,7.67
2019-02-21T07:57:14.697Z,7.70
2019-02-21T07:58:14.715Z,7.82
2019-02-21T07:59:14.730Z,7.95
2019-02-21T08:00:14.747Z,7.90
2019-02-21T08:01:17.306Z,7.98
2019-02-21T08:02:14.777Z,7.95
2019-02-21T08:03:14.794Z,8.01
2019-02-21T08:04:14.816Z,8.01
2019-02-21T08:05:14.825Z,8.03
2019-02-21T08:06:14.841Z,8.08
2019-02-21T08:07:14.860Z,8.16
2019-02-21T08:08:14.880Z,8.18
2019-02-21T08:09:14.892Z,8.19
2019-02-21T08:10:14.909Z,8.16
2019-02-21T08:11:14.922Z,8.20
2019-02-21T08:12:14.941Z,8.20
2019-02-21T08:13:14.962Z,8.30
2019-02-21T08:14:16.214Z,8.30
2019-02-21T08:15:14.995Z,8.30
2019-02-21T08:16:15.109Z,8.27
2019-02-21T08:17:16.277Z,8.28
2019-02-21T08:18:15.056Z,8.23
2019-02-21T08:19:15.609Z,8.33
2019-02-21T08:20:15.070Z,8.31
2019-02-21T08:21:15.090Z,8.31
2019-02-21T08:22:15.106Z,8.34
2019-02-21T08:23:15.123Z,8.33
2019-02-21T08:24:15.150Z,8.34
2019-02-21T08:25:15.161Z,8.37
2019-02-21T08:26:15.195Z,8.36
2019-02-21T08:27:15.186Z,8.34
2019-02-21T08:28:15.203Z,8.45
2019-02-21T08:29:15.220Z,8.46
2019-02-21T08:30:15.235Z,8.46
2019-02-21T08:31:15.264Z,8.49
2019-02-21T08:32:15.272Z,8.52
2019-02-21T08:33:15.284Z,8.49
2019-02-21T08:34:15.306Z,8.56
2019-02-21T08:35:15.327Z,8.55
2019-02-21T08:36:15.332Z,8.60
2019-02-21T08:37:15.359Z,8.60
2019-02-21T08:38:15.371Z,8.64
2019-02-21T08:39:15.786Z,8.69
2019-02-21T08:40:15.402Z,8.71
2019-02-21T08:41:15.419Z,8.71
2019-02-21T08:42:15.435Z,8.88
2019-02-21T08:43:15.449Z,8.79
2019-02-21T08:44:15.466Z,8.81
2019-02-21T08:45:17.729Z,8.85
2019-02-21T08:46:18.220Z,8.82
2019-02-21T08:47:15.517Z,8.81
2019-02-21T08:48:15.532Z,8.92
2019-02-21T08:49:15.575Z,8.95
2019-02-21T08:50:15.698Z,8.92
2019-02-21T08:51:18.142Z,9.00
2019-02-21T08:52:15.663Z,9.02
2019-02-21T08:53:15.618Z,9.02
2019-02-21T08:54:15.638Z,8.87
2019-02-21T08:55:15.653Z,8.97
2019-02-21T08:56:15.671Z,9.00
2019-02-21T08:57:18.331Z,8.97
2019-02-21T08:58:15.704Z,9.03
2019-02-21T08:59:15.779Z,8.91
2019-02-21T09:00:15.736Z,9.02
2019-02-21T09:01:15.759Z,9.13
2019-02-21T09:02:15.770Z,9.13
2019-02-21T09:03:17.985Z,9.18
2019-02-21T09:04:26.693Z,9.22
2019-02-21T09:05:15.826Z,9.26
2019-02-21T09:06:15.846Z,9.21
2019-02-21T09:07:15.853Z,9.26
2019-02-21T09:08:16.755Z,9.31
2019-02-21T09:09:15.888Z,9.32
2019-02-21T09:10:15.910Z,9.37
2019-02-21T09:11:15.920Z,9.32
2019-02-21T09:12:15.939Z,9.40
2019-02-21T09:13:15.956Z,9.29
2019-02-21T09:14:15.974Z,9.48
2019-02-21T09:15:16.020Z,9.48
2019-02-21T09:16:17.837Z,9.41
2019-02-21T09:17:16.029Z,9.47
2019-02-21T09:18:16.040Z,9.46
2019-02-21T09:19:16.061Z,9.48
2019-02-21T09:20:16.081Z,9.46
2019-02-21T09:21:16.091Z,9.34
2019-02-21T09:22:16.111Z,9.43
2019-02-21T09:23:16.127Z,9.40
2019-02-21T09:24:35.294Z,9.29
2019-02-21T09:25:16.159Z,9.36
2019-02-21T09:26:16.179Z,9.36
2019-02-21T09:27:16.207Z,9.40
2019-02-21T09:28:16.512Z,9.31
2019-02-21T09:29:16.230Z,9.32
2019-02-21T09:30:16.249Z,9.40
2019-02-21T09:31:16.263Z,9.31
2019-02-21T09:32:16.282Z,9.47
2019-02-21T09:33:17.749Z,9.47
2019-02-21T09:34:21.074Z,9.51
2019-02-21T09:35:16.336Z,9.56
2019-02-21T09:36:16.356Z,9.56
2019-02-21T09:37:16.368Z,9.58
2019-02-21T09:38:16.383Z,9.61
2019-02-21T09:39:16.402Z,9.72
2019-02-21T09:40:16.421Z,9.65
2019-02-21T09:41:16.434Z,9.66
2019-02-21T09:42:16.461Z,9.58
2019-02-21T09:43:16.476Z,9.58
2019-02-21T09:44:18.194Z,9.58
2019-02-21T09:45:16.540Z,9.66
2019-02-21T09:46:16.526Z,9.68
2019-02-21T09:47:16.541Z,9.66
2019-02-21T09:48:16.561Z,9.72
2019-02-21T09:49:16.573Z,9.68
2019-02-21T09:50:16.592Z,9.76
2019-02-21T09:51:18.343Z,9.77
2019-02-21T09:52:16.626Z,9.84
2019-02-21T09:53:16.641Z,9.89
2019-02-21T09:54:19.013Z,9.94
2019-02-21T09:55:16.676Z,9.94
2019-02-21T09:56:16.692Z,9.92
2019-02-21T09:57:16.709Z,9.97
2019-02-21T09:58:16.740Z,10.05
2019-02-21T09:59:16.774Z,10.07
2019-02-21T10:00:16.818Z,10.20
2019-02-21T10:01:16.779Z,10.20
2019-02-21T10:02:16.798Z,10.31
2019-02-21T10:03:16.836Z,10.33
2019-02-21T10:04:16.835Z,10.35
2019-02-21T10:05:16.850Z,10.54
2019-02-21T10:06:16.869Z,10.49
2019-02-21T10:07:16.884Z,10.60
2019-02-21T10:08:16.929Z,10.56
2019-02-21T10:09:16.920Z,10.54
2019-02-21T10:10:16.937Z,10.42
2019-02-21T10:11:16.956Z,10.51
2019-02-21T10:12:16.983Z,10.46
2019-02-21T10:13:16.999Z,10.40
2019-02-21T10:14:17.022Z,10.56
2019-02-21T10:15:17.059Z,10.59
2019-02-21T10:16:17.046Z,10.57
2019-02-21T10:17:17.064Z,10.68
2019-02-21T10:18:17.091Z,10.67
2019-02-21T10:19:17.099Z,10.63
2019-02-21T10:20:17.117Z,10.63
2019-02-21T10:21:17.132Z,10.75
2019-02-21T10:22:17.152Z,10.75
2019-02-21T10:23:17.170Z,10.71
2019-02-21T10:24:17.188Z,10.75
2019-02-21T10:25:17.209Z,10.71
2019-02-21T10:26:17.225Z,10.82
2019-02-21T10:27:17.240Z,10.87
2019-02-21T10:28:17.261Z,10.89
2019-02-21T10:29:17.283Z,10.93
2019-02-21T10:30:17.329Z,10.96
2019-02-21T10:31:17.313Z,11.08
2019-02-21T10:32:17.330Z,11.12
2019-02-21T10:33:17.352Z,11.17
2019-02-21T10:34:17.375Z,11.02
2019-02-21T10:35:17.386Z,10.92
2019-02-21T10:36:17.402Z,11.02
2019-02-21T10:37:17.423Z,10.94
2019-02-21T10:38:17.441Z,11.05
2019-02-21T10:39:17.457Z,11.00
2019-02-21T10:40:17.476Z,11.02
2019-02-21T10:41:17.493Z,11.10
2019-02-21T10:42:17.536Z,11.23
2019-02-21T10:43:17.631Z,11.18
2019-02-21T10:44:17.547Z,11.37
2019-02-21T10:45:17.569Z,11.35
2019-02-21T10:46:17.588Z,11.30
2019-02-21T10:47:17.605Z,11.33
2019-02-21T10:48:17.624Z,11.36
2019-02-21T10:49:17.640Z,11.41
2019-02-21T10:50:17.659Z,11.35
2019-02-21T10:51:17.675Z,11.35
2019-02-21T10:52:17.700Z,11.33
2019-02-21T10:53:17.715Z,11.36
2019-02-21T10:54:17.731Z,11.36
2019-02-21T10:55:17.748Z,11.47
2019-02-21T10:56:18.170Z,11.41
2019-02-21T10:57:17.786Z,11.43
2019-02-21T10:58:17.807Z,11.44
2019-02-21T10:59:17.827Z,11.36
2019-02-21T11:00:17.844Z,11.54
2019-02-21T11:01:17.868Z,11.60
2019-02-21T11:02:17.879Z,11.63
2019-02-21T11:03:17.903Z,11.65
2019-02-21T11:04:17.916Z,11.68
2019-02-21T11:05:17.932Z,11.73
2019-02-21T11:06:17.953Z,11.78
2019-02-21T11:07:17.972Z,11.78
2019-02-21T11:08:17.988Z,11.77
2019-02-21T11:09:18.017Z,11.86
2019-02-21T11:10:19.188Z,11.84
2019-02-21T11:11:18.051Z,11.81
2019-02-21T11:12:18.064Z,11.83
2019-02-21T11:13:18.083Z,11.86
2019-02-21T11:14:18.102Z,11.95
2019-02-21T11:15:18.118Z,11.99
2019-02-21T11:16:18.292Z,12.00
2019-02-21T11:17:18.162Z,11.88
2019-02-21T11:18:18.318Z,11.99
2019-02-21T11:25:44.626Z,12.40
2019-02-21T11:26:44.650Z,12.40
2019-02-21T11:27:44.664Z,12.47
2019-02-21T11:28:47.177Z,12.37
2019-02-21T11:29:44.709Z,12.36
2019-02-21T11:30:44.719Z,12.37
2019-02-21T11:31:44.737Z,12.37
2019-02-21T11:32:44.759Z,12.37
2019-02-21T11:33:44.779Z,12.24
2019-02-21T11:34:44.800Z,12.31
2019-02-21T11:35:44.818Z,12.25
2019-02-21T11:36:44.840Z,12.24
2019-02-21T11:37:47.122Z,12.28
2019-02-21T11:38:44.873Z,12.09
2019-02-21T11:39:44.892Z,12.02
2019-02-21T11:40:44.913Z,12.04
2019-02-21T11:41:44.935Z,11.95
2019-02-21T11:42:44.954Z,11.94
2019-02-21T11:43:44.967Z,11.81
2019-02-21T11:44:44.993Z,11.77
2019-02-21T11:45:53.477Z,11.66
2019-02-21T11:46:45.023Z,11.68
2019-02-21T11:47:45.068Z,11.60
2019-02-21T11:48:45.067Z,11.60
2019-02-21T11:49:45.081Z,11.66
2019-02-21T11:50:45.107Z,11.69
2019-02-21T11:51:45.123Z,11.77
2019-02-21T11:52:45.137Z,11.80
2019-02-21T11:53:45.155Z,11.81
2019-02-21T11:54:45.179Z,11.90
2019-02-21T11:55:45.192Z,11.90
2019-02-21T11:56:45.216Z,11.97
2019-02-21T11:57:45.230Z,12.12
2019-02-21T11:58:45.249Z,12.06
2019-02-21T11:59:45.265Z,12.12
2019-02-21T12:00:45.286Z,12.22
2019-02-21T12:01:45.309Z,12.27
2019-02-21T12:02:45.321Z,12.36
2019-02-21T12:03:45.340Z,12.53
2019-02-21T12:04:45.359Z,12.60
2019-02-21T12:05:45.378Z,12.55
2019-02-21T12:06:47.703Z,12.65
2019-02-21T12:07:45.419Z,12.62
2019-02-21T12:08:45.439Z,12.64
2019-02-21T12:09:45.455Z,12.64
2019-02-21T12:10:45.475Z,12.64
2019-02-21T12:11:45.500Z,12.75
2019-02-21T12:12:45.513Z,12.83
2019-02-21T12:13:45.536Z,12.82
2019-02-21T12:14:45.556Z,12.76
2019-02-21T12:15:45.573Z,12.78
2019-02-21T12:16:45.590Z,12.85
2019-02-21T12:17:45.613Z,12.86
2019-02-21T12:18:45.629Z,12.86
2019-02-21T12:19:45.645Z,12.87
2019-02-21T12:20:45.666Z,13.03
2019-02-21T12:21:45.689Z,13.05
2019-02-21T12:22:45.705Z,13.15
2019-02-21T12:23:45.722Z,13.15
2019-02-21T12:24:45.747Z,12.98
2019-02-21T12:25:45.761Z,13.15
2019-02-21T12:26:45.781Z,13.11
2019-02-21T12:27:45.802Z,13.11
2019-02-21T12:28:45.827Z,13.11
2019-02-21T12:29:45.841Z,13.08
2019-02-21T12:30:45.860Z,13.03
2019-02-21T12:31:45.876Z,12.90
2019-02-21T12:32:45.898Z,12.85
2019-02-21T12:33:45.931Z,12.86
2019-02-21T12:34:45.936Z,12.93
2019-02-21T12:35:45.958Z,12.95
2019-02-21T12:36:45.976Z,12.83
2019-02-21T12:37:45.994Z,12.82
2019-02-21T12:38:46.015Z,12.90
2019-02-21T12:39:46.036Z,12.95
2019-02-21T12:40:46.054Z,13.12
2019-02-21T12:41:46.082Z,13.09
2019-02-21T12:42:46.089Z,13.00
2019-02-21T12:43:46.159Z,13.05
2019-02-21T12:44:47.843Z,13.08
2019-02-21T12:45:46.154Z,13.12
2019-02-21T12:46:46.170Z,13.09
2019-02-21T12:47:50.942Z,13.15
2019-02-21T12:48:46.210Z,13.16
2019-02-21T12:49:46.232Z,13.15
2019-02-21T12:50:46.247Z,13.22
2019-02-21T12:51:46.265Z,13.16
2019-02-21T12:52:46.285Z,13.18
2019-02-21T12:53:46.313Z,13.16
2019-02-21T12:54:46.323Z,13.05
2019-02-21T12:55:46.344Z,13.15
2019-02-21T12:56:46.361Z,13.25
2019-02-21T12:57:46.390Z,13.20
2019-02-21T12:58:46.401Z,13.31
2019-02-21T12:59:46.422Z,13.33
2019-02-21T13:00:46.446Z,13.27
2019-02-21T13:01:46.460Z,13.30
2019-02-21T13:02:46.480Z,13.38
2019-02-21T13:03:46.500Z,13.38
2019-02-21T13:04:46.516Z,13.28
2019-02-21T13:05:46.536Z,13.35
2019-02-21T13:06:46.581Z,13.44
2019-02-21T13:07:46.574Z,13.46
2019-02-21T13:08:46.714Z,13.37
2019-02-21T13:09:46.621Z,13.49
2019-02-21T13:10:46.639Z,13.49
2019-02-21T13:11:46.655Z,13.31
2019-02-21T13:12:46.671Z,13.33
2019-02-21T13:13:46.695Z,13.42
2019-02-21T13:14:46.714Z,13.23
2019-02-21T13:15:46.732Z,13.27
2019-02-21T13:16:46.752Z,13.30
2019-02-21T13:17:46.772Z,13.33